Hauptseite
METAR-TAF:

METAR-TAF

Flughäfen :

Militärflugplatz Saint-Dizier-Robinson

Saint-Dizier, Frankreich

Breite: 48-38N, Länge: 004-54E, Höhe: 139 m

Beobachtung

Neuester Wetterbericht von vor 24 Minuten, um 02:00 UTC
Wind 8 kt aus Ost
Temperatur 4°C
Luftfeuchtigkeit 60%
Luftdruck 1023 hPa
Sichtweite 10 km oder mehr
keine Wolken unter 1500 m und keine Kumulonimbus oder Gewitterwolken

METAR: LFSI 180200Z AUTO 10008KT CAVOK 04/M03 Q1023

Zeit: 03:24 (02:24 UTC)

Prognose

Neuester Wetterbericht von vor 6 Stunden und 24 Minuten, um 20:00 UTC
Gültige Prognose vom 17 um 21 UTC bis 18 um 21 UTC
Wind 12 kt aus Ost
Sichtweite 10 km oder mehr
keine Wolken unter 1500 m und keine Kumulonimbus oder Gewitterwolken

TAF: LFSI 172000Z 1721/1821 09012KT CAVOK

Wetterbeobachtungen und Prognosen von mehr als 4000 Flughäfen (METAR und TAF Bericht).

Die verfügbaren Stationen werden durch gelbe und rote Markierungen auf der Karte dargestellt.

Führen Sie die Maus auf sie, um den Namen der Station zu sehen.

Darauf klicken, um die Beobachtung von Wetterbeobachtungen und Prognosen zu sehen.

Um die Karte zu ändern : klicken Sie auf den grünen Tasten mit einem schwarzen Kreuz Zum Vergrößern, auf den grünen Button mit einem Gedankenstrich zu verkleinern, oder auf die grünen Pfeile für benachbarte Karten.


METAR-TAF: